createdAt,value
2023-03-26T00:02:52.627Z,9.40
2023-03-26T00:07:54.764Z,9.30
2023-03-26T00:12:56.857Z,9.00
2023-03-26T00:18:00.624Z,8.80
2023-03-26T00:23:02.592Z,8.90
2023-03-26T00:28:06.746Z,8.90
2023-03-26T00:33:12.040Z,8.90
2023-03-26T00:38:15.034Z,8.70
2023-03-26T00:43:22.086Z,8.90
2023-03-26T00:48:31.603Z,8.80
2023-03-26T00:53:46.660Z,8.70
2023-03-26T00:58:50.634Z,8.80
2023-03-26T01:04:07.556Z,8.60
2023-03-26T01:09:20.196Z,8.60
2023-03-26T01:14:24.538Z,8.60
2023-03-26T01:19:33.949Z,8.30
2023-03-26T01:24:36.246Z,8.20
2023-03-26T01:29:46.723Z,8.10
2023-03-26T01:35:03.806Z,8.00
2023-03-26T01:40:31.996Z,7.90
2023-03-26T01:45:38.245Z,7.90
2023-03-26T01:50:40.557Z,7.90
2023-03-26T01:56:12.924Z,7.50
2023-03-26T02:01:44.735Z,7.40
2023-03-26T02:07:07.179Z,7.60
2023-03-26T02:12:10.796Z,7.60
2023-03-26T02:17:12.546Z,7.50
2023-03-26T02:22:15.924Z,7.50
2023-03-26T02:27:18.495Z,7.50
2023-03-26T02:32:20.484Z,7.50
2023-03-26T02:37:22.304Z,7.40
2023-03-26T02:42:24.089Z,7.30
2023-03-26T02:47:26.003Z,7.20
2023-03-26T02:52:28.676Z,7.30
2023-03-26T02:57:31.433Z,7.30
2023-03-26T03:02:33.339Z,7.30
2023-03-26T03:07:38.027Z,7.30
2023-03-26T03:12:43.213Z,7.00
2023-03-26T03:17:45.162Z,7.00
2023-03-26T03:22:47.367Z,7.00
2023-03-26T03:27:50.330Z,7.00
2023-03-26T03:32:52.213Z,7.00
2023-03-26T03:37:54.890Z,7.20
2023-03-26T03:42:56.791Z,7.20
2023-03-26T03:47:58.863Z,6.90
2023-03-26T03:53:01.149Z,6.80
2023-03-26T03:58:03.738Z,6.80
2023-03-26T04:03:06.660Z,7.10
2023-03-26T04:08:08.770Z,7.10
2023-03-26T04:13:12.293Z,7.20
2023-03-26T04:18:14.272Z,7.30
2023-03-26T04:23:18.135Z,7.20
2023-03-26T04:28:31.150Z,7.20
2023-03-26T04:33:34.789Z,7.30
2023-03-26T04:38:46.171Z,7.40
2023-03-26T04:43:50.531Z,7.40
2023-03-26T04:48:54.100Z,7.40
2023-03-26T04:54:00.640Z,7.40
2023-03-26T04:59:02.522Z,7.40
2023-03-26T05:04:04.712Z,7.40
2023-03-26T05:09:07.444Z,7.30
2023-03-26T05:14:09.750Z,9.80
2023-03-26T05:19:11.591Z,7.40
2023-03-26T05:24:13.475Z,7.40
2023-03-26T05:29:17.413Z,7.40
2023-03-26T05:34:20.813Z,7.40
2023-03-26T05:39:26.577Z,7.50
2023-03-26T05:44:28.655Z,7.50
2023-03-26T05:49:30.645Z,7.60
2023-03-26T05:54:32.794Z,7.70
2023-03-26T05:59:34.666Z,7.70
2023-03-26T06:04:40.972Z,7.80
2023-03-26T06:09:42.946Z,7.90
2023-03-26T06:14:45.897Z,7.90
2023-03-26T06:19:48.310Z,8.10
2023-03-26T06:24:53.122Z,8.10
2023-03-26T06:29:55.455Z,8.10
2023-03-26T06:34:57.257Z,8.10
2023-03-26T06:39:59.327Z,8.10
2023-03-26T06:45:01.043Z,8.00
2023-03-26T06:50:03.109Z,8.40
2023-03-26T06:55:06.578Z,8.50
2023-03-26T07:00:09.124Z,8.40
2023-03-26T07:05:11.136Z,8.80
2023-03-26T07:10:13.265Z,9.00
2023-03-26T07:15:15.484Z,9.10
2023-03-26T07:20:17.389Z,9.30
2023-03-26T07:25:20.829Z,9.40
2023-03-26T07:30:57.175Z,9.40
2023-03-26T07:36:21.392Z,9.60
2023-03-26T07:41:29.586Z,9.40
2023-03-26T07:46:35.010Z,9.30
2023-03-26T07:51:37.038Z,9.50
2023-03-26T07:56:59.153Z,9.40
2023-03-26T08:02:04.016Z,9.60
2023-03-26T08:07:24.243Z,9.80
2023-03-26T08:13:02.485Z,9.60
2023-03-26T08:18:45.880Z,9.40
2023-03-26T08:24:13.056Z,7.60
2023-03-26T08:29:27.485Z,9.30
2023-03-26T08:34:29.472Z,9.50
2023-03-26T08:39:31.830Z,9.50
2023-03-26T08:44:54.786Z,9.10
2023-03-26T08:50:08.486Z,9.20
2023-03-26T08:55:30.750Z,9.20
2023-03-26T09:00:32.671Z,9.60
2023-03-26T09:05:40.416Z,9.60
2023-03-26T09:11:05.934Z,9.60
2023-03-26T09:16:23.003Z,9.70
2023-03-26T09:21:43.952Z,9.60
2023-03-26T09:27:13.489Z,9.40
2023-03-26T09:32:23.098Z,9.50
2023-03-26T09:37:56.813Z,9.50
2023-03-26T09:43:17.150Z,9.70
2023-03-26T09:48:37.089Z,9.70
2023-03-26T09:53:53.882Z,9.80
2023-03-26T09:59:22.306Z,9.80
2023-03-26T10:04:38.241Z,9.90
2023-03-26T10:10:20.541Z,10.80
2023-03-26T10:15:46.529Z,12.30
2023-03-26T10:21:13.212Z,12.20
2023-03-26T10:26:33.618Z,11.70
2023-03-26T10:31:58.157Z,10.80
2023-03-26T10:37:21.841Z,10.70
2023-03-26T10:42:43.752Z,11.40
2023-03-26T10:47:48.557Z,12.00
2023-03-26T10:52:59.392Z,13.40
2023-03-26T10:58:22.026Z,13.90
2023-03-26T11:03:54.438Z,14.10
2023-03-26T11:09:07.159Z,14.00
2023-03-26T11:14:33.885Z,14.30
2023-03-26T11:19:47.550Z,14.10
2023-03-26T11:25:14.927Z,16.10
2023-03-26T11:30:25.409Z,13.90
2023-03-26T11:35:51.757Z,13.60
2023-03-26T11:40:57.004Z,13.80
2023-03-26T11:46:00.988Z,14.40
2023-03-26T11:51:15.289Z,15.20
2023-03-26T11:56:38.043Z,16.30
2023-03-26T12:01:57.824Z,16.10
2023-03-26T12:07:09.484Z,16.00
2023-03-26T12:12:12.015Z,16.10
2023-03-26T12:17:32.272Z,15.90
2023-03-26T12:22:41.148Z,13.90
2023-03-26T12:28:02.763Z,13.80
2023-03-26T12:33:07.838Z,12.30
2023-03-26T12:38:33.454Z,12.30
2023-03-26T12:44:53.291Z,13.70
2023-03-26T12:49:08.977Z,13.40
2023-03-26T12:54:36.904Z,12.70
2023-03-26T12:59:44.004Z,14.10
2023-03-26T13:05:05.523Z,14.20
2023-03-26T13:10:11.616Z,15.40
2023-03-26T13:15:28.882Z,15.20
2023-03-26T13:21:03.056Z,15.70
2023-03-26T13:26:56.814Z,16.60
2023-03-26T13:32:16.777Z,16.00
2023-03-26T13:37:37.496Z,17.30
2023-03-26T13:43:01.283Z,16.50
2023-03-26T13:48:08.212Z,16.50
2023-03-26T13:53:22.580Z,17.10
2023-03-26T13:58:42.546Z,17.70
2023-03-26T14:03:52.535Z,18.70
2023-03-26T14:09:02.688Z,18.30
2023-03-26T14:14:14.098Z,17.30
2023-03-26T14:19:20.619Z,18.00
2023-03-26T14:24:34.308Z,18.50
2023-03-26T14:30:05.094Z,17.50
2023-03-26T14:35:26.430Z,18.00
2023-03-26T14:40:44.127Z,18.30
2023-03-26T14:46:00.530Z,18.50
2023-03-26T14:51:26.652Z,16.90
2023-03-26T14:56:48.559Z,16.10
2023-03-26T15:01:50.571Z,15.10
2023-03-26T15:07:34.030Z,14.60
2023-03-26T15:13:03.593Z,14.30
2023-03-26T15:18:57.501Z,14.10
2023-03-26T15:24:38.574Z,13.80
2023-03-26T15:30:05.652Z,13.50
2023-03-26T15:35:34.868Z,10.90
2023-03-26T15:40:56.471Z,10.90
2023-03-26T15:46:24.113Z,10.50
2023-03-26T15:51:53.956Z,10.50
2023-03-26T15:57:30.625Z,10.70
2023-03-26T16:02:59.120Z,10.80
2023-03-26T16:08:38.795Z,10.70
2023-03-26T16:13:43.085Z,10.50
2023-03-26T16:18:55.661Z,10.60
2023-03-26T16:24:03.609Z,10.60
2023-03-26T16:29:05.355Z,10.50
2023-03-26T16:39:25.540Z,10.00
2023-03-26T16:44:31.926Z,9.80
2023-03-26T16:50:08.997Z,9.80
2023-03-26T16:55:20.423Z,9.60
2023-03-26T17:00:36.636Z,9.70
2023-03-26T17:11:19.935Z,9.20
2023-03-26T17:16:41.165Z,9.00
2023-03-26T17:22:27.951Z,9.40
2023-03-26T17:27:46.990Z,9.40
2023-03-26T17:33:06.642Z,9.20
2023-03-26T17:38:28.498Z,9.20
2023-03-26T17:43:46.561Z,9.40
2023-03-26T17:48:58.486Z,9.20
2023-03-26T17:54:01.101Z,9.30
2023-03-26T17:59:12.165Z,9.10
2023-03-26T18:04:33.397Z,8.80
2023-03-26T18:10:03.103Z,9.10
2023-03-26T18:15:11.532Z,9.00
2023-03-26T18:20:28.446Z,9.00
2023-03-26T18:25:34.197Z,9.30
2023-03-26T18:30:47.381Z,9.10
2023-03-26T18:35:56.272Z,9.00
2023-03-26T18:40:59.220Z,8.90
2023-03-26T18:46:01.782Z,8.90
2023-03-26T18:51:06.753Z,8.90
2023-03-26T18:56:27.757Z,8.90
2023-03-26T19:01:32.460Z,9.00
2023-03-26T19:06:41.716Z,9.20
2023-03-26T19:11:45.547Z,9.20
2023-03-26T19:17:00.936Z,9.20
2023-03-26T19:22:05.809Z,9.20
2023-03-26T19:27:08.848Z,9.20
2023-03-26T19:32:34.875Z,9.30
2023-03-26T19:37:50.760Z,8.90
2023-03-26T19:42:53.089Z,9.10
2023-03-26T19:48:04.027Z,9.00
2023-03-26T19:53:22.725Z,9.10
2023-03-26T19:58:26.479Z,8.90
2023-03-26T20:03:36.764Z,8.90
2023-03-26T20:08:40.631Z,8.80
2023-03-26T20:13:42.609Z,8.80
2023-03-26T20:18:44.441Z,8.90
2023-03-26T20:23:46.473Z,8.90
2023-03-26T20:28:53.186Z,8.90
2023-03-26T20:33:56.670Z,8.70
2023-03-26T20:38:58.448Z,8.70
2023-03-26T20:44:00.641Z,8.50
2023-03-26T20:49:02.812Z,8.50
2023-03-26T20:54:06.624Z,8.70
2023-03-26T20:59:11.450Z,8.60
2023-03-26T21:04:14.404Z,8.80
2023-03-26T21:09:23.824Z,8.80
2023-03-26T21:14:32.787Z,8.80
2023-03-26T21:19:34.774Z,11.10
2023-03-26T21:24:58.371Z,8.90
2023-03-26T21:30:00.648Z,8.90
2023-03-26T21:35:05.056Z,8.70
2023-03-26T21:40:26.241Z,8.80
2023-03-26T21:45:28.415Z,8.80
2023-03-26T21:50:30.736Z,8.80
2023-03-26T21:55:43.947Z,8.70
2023-03-26T22:01:11.650Z,8.80
2023-03-26T22:06:25.041Z,8.70
2023-03-26T22:11:27.157Z,8.70
2023-03-26T22:16:29.237Z,8.70
2023-03-26T22:21:31.291Z,8.70
2023-03-26T22:26:33.459Z,8.60
2023-03-26T22:31:39.143Z,8.80
2023-03-26T22:36:41.220Z,8.50
2023-03-26T22:41:43.263Z,8.30
2023-03-26T22:46:47.542Z,8.50
2023-03-26T22:51:50.340Z,8.50
2023-03-26T22:56:52.713Z,8.50
2023-03-26T23:01:55.192Z,8.70
2023-03-26T23:06:57.757Z,8.40
2023-03-26T23:11:59.862Z,8.50
2023-03-26T23:17:02.072Z,8.50
2023-03-26T23:22:03.880Z,8.40
2023-03-26T23:27:07.374Z,8.30
2023-03-26T23:32:23.649Z,8.30
2023-03-26T23:37:26.207Z,8.30
2023-03-26T23:42:29.541Z,8.20
2023-03-26T23:47:35.169Z,8.20
2023-03-26T23:52:37.672Z,8.30
2023-03-26T23:57:40.599Z,8.30
